Time;durP1;ratioP1;P1;durP2;ratioP2;P2;SDS_P1;SDS_P2;PMS_P1;PMS_P2;Temp;Humidity;BMP_temperature;BMP_pressure;BME280_temperature;BME280_humidity;BME280_pressure;Samples;Min_cycle;Max_cycle;Signal;HPM_P1;HPM_P2
2022/06/02 00:01:59;;;;;;;9.05;5.72;;;;;;;;;;5123113;28;20649;-73
2022/06/02 00:04:29;;;;;;;9.60;6.25;;;;;;;;;;5120671;28;20687;-73
2022/06/02 00:07:01;;;;;;;12.32;5.78;;;;;;;;;;5111160;28;20280;-74
2022/06/02 00:09:46;;;;;;;8.25;5.82;;;;;;;;;;5109111;28;20633;-73
2022/06/02 00:12:24;;;;;;;9.32;6.15;;;;;;;;;;5121403;27;20669;-74
2022/06/02 00:14:53;;;;;;;7.63;6.35;;;;;;;;;;5117193;27;20192;-74
2022/06/02 00:17:25;;;;;;;9.55;6.28;;;;;;;;;;5109120;28;20189;-73
2022/06/02 00:20:11;;;;;;;8.50;5.82;;;;;;;;;;5115107;27;20177;-73
2022/06/02 00:22:52;;;;;;;9.73;6.20;;;;;;;;;;5111887;27;20546;-73
2022/06/02 00:25:26;;;;;;;9.10;6.57;;;;;;;;;;5113720;28;20552;-74
2022/06/02 00:28:11;;;;;;;10.20;6.65;;;;;;;;;;5110418;27;20253;-74
2022/06/02 00:30:54;;;;;;;9.77;6.20;;;;;;;;;;5113724;28;22127;-75
2022/06/02 00:33:34;;;;;;;5.85;5.22;;;;;;;;;;5093742;28;20276;-74
2022/06/02 00:36:03;;;;;;;10.85;6.15;;;;;;;;;;5115080;27;20263;-74
2022/06/02 00:38:31;;;;;;;7.93;5.72;;;;;;;;;;5126600;27;20253;-74
2022/06/02 00:41:03;;;;;;;8.70;5.68;;;;;;;;;;5132288;27;20185;-73
2022/06/02 00:43:29;;;;;;;7.50;6.10;;;;;;;;;;5112002;28;20220;-73
2022/06/02 00:46:08;;;;;;;9.15;6.25;;;;;;;;;;5113202;28;20685;-73
2022/06/02 00:48:50;;;;;;;7.10;5.55;;;;;;;;;;5110717;27;20276;-73
2022/06/02 00:51:18;;;;;;;8.63;5.78;;;;;;;;;;5110622;28;20651;-74
2022/06/02 00:57:30;;;;;;;9.05;5.80;;;;;;;;;;5110270;28;20558;-73
2022/06/02 01:00:00;;;;;;;10.20;6.18;;;;;;;;;;5112369;27;20205;-74
2022/06/02 01:02:27;;;;;;;8.40;5.63;;;;;;;;;;5116738;27;20267;-73
2022/06/02 01:04:54;;;;;;;7.10;5.93;;;;;;;;;;5122196;27;20188;-73
2022/06/02 01:07:26;;;;;;;8.95;6.25;;;;;;;;;;5112388;27;20215;-74
2022/06/02 01:09:58;;;;;;;6.90;5.57;;;;;;;;;;5129142;27;20196;-73
2022/06/02 01:12:31;;;;;;;7.72;5.95;;;;;;;;;;5119834;27;20212;-74
2022/06/02 01:15:03;;;;;;;8.65;5.70;;;;;;;;;;5126588;27;20199;-73
2022/06/02 01:17:29;;;;;;;10.77;5.97;;;;;;;;;;5116707;27;20189;-71
2022/06/02 01:19:58;;;;;;;6.72;5.70;;;;;;;;;;5121632;27;20679;-72
2022/06/02 01:22:37;;;;;;;8.45;6.10;;;;;;;;;;5116909;27;20184;-73
2022/06/02 01:25:06;;;;;;;9.05;6.55;;;;;;;;;;5111282;27;20571;-73
2022/06/02 01:27:42;;;;;;;7.45;5.90;;;;;;;;;;5117440;27;20201;-73
2022/06/02 01:30:14;;;;;;;7.30;6.15;;;;;;;;;;5100055;27;20187;-72
2022/06/02 01:32:45;;;;;;;7.22;5.88;;;;;;;;;;5120342;27;20261;-74
2022/06/02 01:35:14;;;;;;;7.75;5.90;;;;;;;;;;5109914;27;20274;-74
2022/06/02 01:37:47;;;;;;;9.23;6.03;;;;;;;;;;5115041;27;20177;-73
2022/06/02 01:40:16;;;;;;;8.20;5.82;;;;;;;;;;5109429;28;20185;-74
2022/06/02 01:43:03;;;;;;;13.07;5.90;;;;;;;;;;5109976;28;20185;-73
2022/06/02 01:45:39;;;;;;;7.28;5.85;;;;;;;;;;5110950;28;20185;-74
2022/06/02 01:48:15;;;;;;;8.15;6.30;;;;;;;;;;5106553;28;20189;-71
2022/06/02 01:50:50;;;;;;;8.80;6.20;;;;;;;;;;5092703;28;20189;-73
2022/06/02 01:53:33;;;;;;;8.40;6.43;;;;;;;;;;5125399;27;20733;-72
2022/06/02 01:56:05;;;;;;;8.98;5.75;;;;;;;;;;5102388;27;20197;-74
2022/06/02 01:58:37;;;;;;;8.23;6.30;;;;;;;;;;5094450;28;20189;-74
2022/06/02 02:01:12;;;;;;;9.55;6.53;;;;;;;;;;5111634;27;20185;-73
2022/06/02 02:03:49;;;;;;;8.35;6.32;;;;;;;;;;5098177;27;20214;-74
2022/06/02 02:06:18;;;;;;;8.40;6.22;;;;;;;;;;5118822;27;20169;-74
2022/06/02 02:08:45;;;;;;;8.73;6.10;;;;;;;;;;5123701;27;20272;-74
2022/06/02 02:11:14;;;;;;;8.93;6.05;;;;;;;;;;5118711;27;20652;-73
2022/06/02 02:13:43;;;;;;;7.97;6.15;;;;;;;;;;5115634;27;20547;-73
2022/06/02 02:16:09;;;;;;;7.82;6.13;;;;;;;;;;5122549;27;20188;-74
2022/06/02 02:18:41;;;;;;;9.93;5.80;;;;;;;;;;5111497;27;20196;-74
2022/06/02 02:21:23;;;;;;;6.88;5.68;;;;;;;;;;5117833;27;20179;-74
2022/06/02 02:23:49;;;;;;;9.88;6.00;;;;;;;;;;5108427;28;20231;-72
2022/06/02 02:26:34;;;;;;;7.93;6.60;;;;;;;;;;5109388;28;20203;-73
2022/06/02 02:29:13;;;;;;;9.43;6.65;;;;;;;;;;5108835;28;20185;-73
2022/06/02 02:31:48;;;;;;;13.88;7.03;;;;;;;;;;5111262;27;20277;-73
2022/06/02 02:34:34;;;;;;;10.65;6.78;;;;;;;;;;5104757;28;20189;-73
2022/06/02 02:37:14;;;;;;;11.88;7.45;;;;;;;;;;5109507;27;20322;-73
2022/06/02 02:39:59;;;;;;;13.07;7.70;;;;;;;;;;5108800;28;20180;-75
2022/06/02 02:42:29;;;;;;;8.77;6.97;;;;;;;;;;5126844;27;20253;-75
2022/06/02 02:45:15;;;;;;;8.85;6.85;;;;;;;;;;5113290;27;20279;-74
2022/06/02 02:47:48;;;;;;;9.63;6.50;;;;;;;;;;5123077;27;20211;-73
2022/06/02 02:50:15;;;;;;;9.75;6.60;;;;;;;;;;5111999;27;20242;-73
2022/06/02 02:52:41;;;;;;;9.88;6.93;;;;;;;;;;5109131;28;21012;-74
2022/06/02 02:55:25;;;;;;;10.52;7.00;;;;;;;;;;5110671;28;20165;-74
2022/06/02 02:58:02;;;;;;;8.95;6.85;;;;;;;;;;5110074;27;20181;-73
2022/06/02 03:00:33;;;;;;;10.65;7.55;;;;;;;;;;5118489;27;20228;-74
2022/06/02 03:03:16;;;;;;;11.30;7.75;;;;;;;;;;5109465;27;20241;-72
2022/06/02 03:05:45;;;;;;;8.68;6.80;;;;;;;;;;5106866;28;20193;-73
2022/06/02 03:08:40;;;;;;;10.38;7.80;;;;;;;;;;5111062;27;20696;-74
2022/06/02 03:11:29;;;;;;;12.32;7.75;;;;;;;;;;5068608;28;20658;-73
2022/06/02 03:14:14;;;;;;;9.60;7.25;;;;;;;;;;5093399;27;20196;-73
2022/06/02 03:16:40;;;;;;;11.93;7.82;;;;;;;;;;5123261;27;20195;-73
2022/06/02 03:19:15;;;;;;;10.40;7.40;;;;;;;;;;5105862;28;20552;-74
2022/06/02 03:21:45;;;;;;;9.52;6.95;;;;;;;;;;5125811;27;20172;-74
2022/06/02 03:24:20;;;;;;;9.63;7.72;;;;;;;;;;5102952;28;20184;-73
2022/06/02 03:26:59;;;;;;;8.65;7.60;;;;;;;;;;5108030;28;20729;-75
2022/06/02 03:29:28;;;;;;;9.85;7.47;;;;;;;;;;5107524;28;20189;-75
2022/06/02 03:32:00;;;;;;;10.30;7.53;;;;;;;;;;5125637;27;20296;-73
2022/06/02 03:34:26;;;;;;;10.73;7.90;;;;;;;;;;5106161;28;20637;-74
2022/06/02 03:37:01;;;;;;;14.80;8.13;;;;;;;;;;5110410;27;20582;-72
2022/06/02 03:39:39;;;;;;;12.48;8.65;;;;;;;;;;5107671;28;20177;-72
2022/06/02 03:42:15;;;;;;;10.25;7.80;;;;;;;;;;5108763;28;20189;-74
2022/06/02 03:44:50;;;;;;;13.00;8.00;;;;;;;;;;5122154;27;20228;-73
2022/06/02 03:47:16;;;;;;;10.63;8.30;;;;;;;;;;5127858;27;20195;-74
2022/06/02 03:49:49;;;;;;;13.43;8.85;;;;;;;;;;5123610;27;20192;-73
2022/06/02 03:52:18;;;;;;;11.02;8.48;;;;;;;;;;5118814;27;20544;-74
2022/06/02 03:55:08;;;;;;;11.52;8.13;;;;;;;;;;5118858;27;20245;-72
2022/06/02 03:57:53;;;;;;;12.82;8.70;;;;;;;;;;5123530;27;20382;-75
2022/06/02 04:00:22;;;;;;;13.15;8.15;;;;;;;;;;5116106;27;20184;-74
2022/06/02 04:02:48;;;;;;;15.40;9.15;;;;;;;;;;5118076;27;20547;-73
2022/06/02 04:05:19;;;;;;;13.15;8.82;;;;;;;;;;5121042;27;20264;-74
2022/06/02 04:07:51;;;;;;;15.15;9.35;;;;;;;;;;5111376;28;20193;-74
2022/06/02 04:10:38;;;;;;;16.02;9.05;;;;;;;;;;5123909;27;20645;-74
2022/06/02 04:16:04;;;;;;;17.05;9.40;;;;;;;;;;5114483;27;20533;-74
2022/06/02 04:18:33;;;;;;;16.60;8.95;;;;;;;;;;5117442;27;20168;-74
2022/06/02 04:20:59;;;;;;;12.02;9.15;;;;;;;;;;5124856;27;20271;-74
2022/06/02 04:23:39;;;;;;;11.85;9.20;;;;;;;;;;5127125;27;20192;-74
2022/06/02 04:26:24;;;;;;;13.88;9.65;;;;;;;;;;5123038;27;20198;-73
2022/06/02 04:28:55;;;;;;;12.27;9.15;;;;;;;;;;5131360;27;20188;-74
2022/06/02 04:31:40;;;;;;;12.75;9.80;;;;;;;;;;5111073;27;20194;-74
2022/06/02 04:34:11;;;;;;;13.57;10.18;;;;;;;;;;5111630;27;20260;-73
2022/06/02 04:36:43;;;;;;;15.07;9.88;;;;;;;;;;5110550;28;20624;-74
2022/06/02 04:39:30;;;;;;;14.93;10.65;;;;;;;;;;5128423;27;20204;-73
2022/06/02 04:42:15;;;;;;;16.70;10.82;;;;;;;;;;5110812;27;20197;-74
2022/06/02 04:44:53;;;;;;;15.13;11.50;;;;;;;;;;5113094;27;20229;-74
2022/06/02 04:47:28;;;;;;;18.77;10.90;;;;;;;;;;5108831;27;20177;-76
2022/06/02 04:50:00;;;;;;;20.58;12.05;;;;;;;;;;5114591;27;20188;-73
2022/06/02 04:52:46;;;;;;;15.18;10.70;;;;;;;;;;5111001;28;20209;-73
2022/06/02 04:55:13;;;;;;;16.95;11.60;;;;;;;;;;5120851;27;20672;-74
2022/06/02 04:57:48;;;;;;;16.13;11.90;;;;;;;;;;5110694;27;20177;-73
2022/06/02 05:00:17;;;;;;;16.98;11.55;;;;;;;;;;5122192;27;20277;-75
2022/06/02 05:02:59;;;;;;;18.55;11.77;;;;;;;;;;5100116;27;20182;-74
2022/06/02 05:05:28;;;;;;;16.27;11.90;;;;;;;;;;5110359;27;20169;-73
2022/06/02 05:07:57;;;;;;;15.52;11.48;;;;;;;;;;5109392;27;20234;-73
2022/06/02 05:10:32;;;;;;;15.23;11.45;;;;;;;;;;5108903;27;20189;-74
2022/06/02 05:12:58;;;;;;;18.67;12.95;;;;;;;;;;5119040;27;20208;-74
2022/06/02 05:15:40;;;;;;;16.55;12.80;;;;;;;;;;5125980;27;20256;-74
2022/06/02 05:18:08;;;;;;;26.27;12.93;;;;;;;;;;5117356;27;20306;-74
2022/06/02 05:20:55;;;;;;;20.38;12.93;;;;;;;;;;5117481;27;20177;-76
2022/06/02 05:23:33;;;;;;;16.38;12.45;;;;;;;;;;5116721;27;20241;-74
2022/06/02 05:26:11;;;;;;;15.50;13.27;;;;;;;;;;5112621;27;20249;-74
2022/06/02 05:28:44;;;;;;;24.45;14.27;;;;;;;;;;5125189;27;20203;-74
2022/06/02 05:31:29;;;;;;;18.05;13.43;;;;;;;;;;5124422;27;20543;-74
2022/06/02 05:34:08;;;;;;;18.73;13.38;;;;;;;;;;5116983;27;20204;-74
2022/06/02 05:36:52;;;;;;;16.80;12.73;;;;;;;;;;5108507;27;21019;-74
2022/06/02 05:39:26;;;;;;;14.30;10.70;;;;;;;;;;5122009;27;20235;-74
2022/06/02 05:42:01;;;;;;;18.23;10.90;;;;;;;;;;5117525;27;20303;-75
2022/06/02 05:44:49;;;;;;;11.00;7.88;;;;;;;;;;5110517;28;20220;-74
2022/06/02 05:47:23;;;;;;;12.55;8.85;;;;;;;;;;5114586;27;20278;-74
2022/06/02 05:49:57;;;;;;;10.52;6.80;;;;;;;;;;5108636;27;20276;-76
2022/06/02 05:52:34;;;;;;;11.07;6.22;;;;;;;;;;5107861;28;20261;-73
2022/06/02 05:55:13;;;;;;;11.98;5.80;;;;;;;;;;5109805;28;20185;-74
2022/06/02 05:57:41;;;;;;;7.03;4.95;;;;;;;;;;5104889;27;20275;-74
2022/06/02 06:00:07;;;;;;;6.15;4.55;;;;;;;;;;5107940;28;20181;-74
2022/06/02 06:02:47;;;;;;;8.00;4.35;;;;;;;;;;5108147;28;20189;-76
2022/06/02 06:05:16;;;;;;;6.70;3.90;;;;;;;;;;5116458;27;20196;-74
2022/06/02 06:08:03;;;;;;;5.88;4.15;;;;;;;;;;5111250;27;20196;-73
2022/06/02 06:10:48;;;;;;;7.85;3.80;;;;;;;;;;5112660;27;20393;-74
2022/06/02 06:13:17;;;;;;;4.97;3.50;;;;;;;;;;5115180;27;20220;-74
2022/06/02 06:15:48;;;;;;;5.50;3.90;;;;;;;;;;5107041;27;21738;-75
2022/06/02 06:18:34;;;;;;;6.30;4.10;;;;;;;;;;5121218;27;20196;-77
2022/06/02 06:21:09;;;;;;;10.48;4.50;;;;;;;;;;5103876;28;20177;-73
2022/06/02 06:23:50;;;;;;;8.70;3.58;;;;;;;;;;5109861;27;20199;-75
2022/06/02 06:26:35;;;;;;;7.88;3.63;;;;;;;;;;5108258;27;20583;-74
2022/06/02 06:29:22;;;;;;;5.90;2.80;;;;;;;;;;5111839;27;20633;-74
2022/06/02 06:31:48;;;;;;;6.82;3.03;;;;;;;;;;5102049;28;20541;-73
2022/06/02 06:34:16;;;;;;;4.57;2.75;;;;;;;;;;5107273;27;20212;-73
2022/06/02 06:37:08;;;;;;;5.32;3.53;;;;;;;;;;5105113;27;20215;-74
2022/06/02 06:39:46;;;;;;;6.40;3.88;;;;;;;;;;5110645;27;20260;-72
2022/06/02 06:42:31;;;;;;;4.75;3.40;;;;;;;;;;5111630;27;20181;-74
2022/06/02 06:45:06;;;;;;;7.32;3.80;;;;;;;;;;5107044;27;20262;-73
2022/06/02 06:48:01;;;;;;;6.35;4.50;;;;;;;;;;5121611;27;20191;-72
2022/06/02 06:50:33;;;;;;;8.23;4.75;;;;;;;;;;5100067;28;20243;-73
2022/06/02 06:53:12;;;;;;;6.93;4.18;;;;;;;;;;5126265;27;20668;-75
2022/06/02 06:55:56;;;;;;;5.78;3.83;;;;;;;;;;5105842;28;20272;-75
2022/06/02 06:58:28;;;;;;;9.57;4.15;;;;;;;;;;5104421;27;20189;-76
2022/06/02 07:01:01;;;;;;;11.98;5.07;;;;;;;;;;5122890;27;20653;-74
2022/06/02 07:03:40;;;;;;;6.18;3.90;;;;;;;;;;5106584;27;20176;-74
2022/06/02 07:06:12;;;;;;;7.35;4.65;;;;;;;;;;5109808;27;20205;-73
2022/06/02 07:08:45;;;;;;;8.02;4.50;;;;;;;;;;5109245;27;20584;-74
2022/06/02 07:14:27;;;;;;;10.48;3.50;;;;;;;;;;5119679;27;20254;-75
2022/06/02 07:16:55;;;;;;;6.38;3.45;;;;;;;;;;5111140;27;20181;-72
2022/06/02 07:19:45;;;;;;;5.55;3.25;;;;;;;;;;5123817;27;20188;-73
2022/06/02 07:22:21;;;;;;;7.47;3.65;;;;;;;;;;5126178;27;21877;-72
2022/06/02 07:25:06;;;;;;;8.80;3.67;;;;;;;;;;5110520;27;20209;-71
2022/06/02 07:27:50;;;;;;;11.88;3.83;;;;;;;;;;5107514;28;20682;-73
2022/06/02 07:30:35;;;;;;;5.07;3.75;;;;;;;;;;5115763;27;20189;-74
2022/06/02 07:33:10;;;;;;;9.38;3.65;;;;;;;;;;5114766;27;20266;-71
2022/06/02 07:35:42;;;;;;;5.57;4.00;;;;;;;;;;5106354;28;20195;-71
2022/06/02 07:38:23;;;;;;;8.60;3.90;;;;;;;;;;5108468;28;20234;-72
2022/06/02 07:40:49;;;;;;;8.02;3.85;;;;;;;;;;5109741;28;20189;-71
